ICAO code: LHPR | IATA code: QGY | SITA: QGYAPXH | AFTN: LHPRZPZX

Időjárási adatok

METAR LHPR 011315Z AUTO 28004KT 230V330 9999 OVC022 15/11 Q1012 NOSIG=
TAF LHPR 011115Z 0112/0121 30009KT 8000 BKN008
TEMPO 0112/0114 2000 -DZ BR OVC004
BECMG 0112/0115 BKN016
TEMPO 0115/0118 5000 SHRA SCT030TCU BKN060=
Nem volt érdemleges időjárási jelenség az elmúlt órában
2022-10-01 13:30:00 UTC
Hőmérséklet
14.9 °C
 
Harmatpont
11.5 °C
 
Rel. páratartalom
80%
 
QNH
1012.4 hPa
 
Szélsebesség
1.6 m/s
Max
2.2 m/s
Szélirány
280°
 
Csapadék (1 óra)
0.0 mm
 
Látótávolság
17028 m
 
RVR
>1500 m RWY29
 
1. felhőréteg mennyisége
8 octa
 
1. felhőréteg alapja
780 m